PAVD METAR and TAF weather

Enter ICAO airport designator
Station Type Date Time Source
PAVD METAR 2021/09/24 04:56 UTC NOAA

PAVD 240456Z VRB03KT 10SM -RA SCT049 BKN055 OVC065 06/01 A2906 RMK AO2 RAB30 SLP840 P0000 T00610011


Station Type Date Time Source
PAVD Decoded METAR 2021/09/24 04:56 UTC NOAA

Valdez 2, AK, United States (PAVD) 61-08N 146-16W
Sep 24, 2021 - 12:56 AM EDT / 2021.09.24 0456 UTC
Wind: Variable at 3 MPH (3 KT):0
Visibility: 10 mile(s):0
Sky conditions: overcast
Weather: light rain
Precipitation last hour: A trace
Temperature: 43.0 F (6.1 C)
Dew Point: 34.0 F (1.1 C)
Relative Humidity: 70%
Pressure (altimeter): 29.06 in. Hg (984 hPa)
ob: PAVD 240456Z VRB03KT 10SM -RA SCT049 BKN055 OVC065 06/01 A2906 RMK AO2 RAB30 SLP840 P0000 T00610011
cycle: 5

Station Type Date Time Source
PAVD TAF 2021/09/23 18:51 UTC NOAA

TAF PAVD 231748Z 2318/2418 08004KT P6SM VCSH SCT050 BKN060
FM232000 08008G15KT P6SM -RA BKN040
FM232200 08007KT 4SM -RA BR SCT005 OVC025
FM240300 VRB03KT P6SM -RA SCT015 OVC030
AMD LTD TO CLD VIS AND WIND

Example: see airport list